Time;durP1;ratioP1;P1;durP2;ratioP2;P2;SDS_P1;SDS_P2;PMS_P1;PMS_P2;Temp;Humidity;BMP_temperature;BMP_pressure;BME280_temperature;BME280_humidity;BME280_pressure;Samples;Min_cycle;Max_cycle;Signal;HPM_P1;HPM_P2
2021/11/02 00:00:07;;;;;;;9.80;7.24;;;;;;;;;;693663;28;849;-58
2021/11/02 00:00:27;;;;;;;8.93;7.60;;;;;;;;;;693383;28;825;-58
2021/11/02 00:00:50;;;;;;;9.70;7.67;;;;;;;;;;692805;28;1429;-57
2021/11/02 00:01:10;;;;;;;9.38;7.50;;;;;;;;;;693479;28;907;-58
2021/11/02 00:01:30;;;;;;;9.18;7.28;;;;;;;;;;693255;28;1590;-58
2021/11/02 00:01:51;;;;;;;9.83;7.53;;;;;;;;;;693499;28;955;-58
2021/11/02 00:02:11;;;;;;;8.57;7.40;;;;;;;;;;693497;28;817;-57
2021/11/02 00:02:31;;;;;;;8.27;7.13;;;;;;;;;;693696;28;806;-57
2021/11/02 00:02:51;;;;;;;9.05;7.30;;;;;;;;;;693288;28;808;-58
2021/11/02 00:03:11;;;;;;;10.43;7.40;;;;;;;;;;693694;28;917;-57
2021/11/02 00:03:32;;;;;;;9.87;7.47;;;;;;;;;;693635;28;887;-58
2021/11/02 00:04:04;;;;;;;9.13;7.60;;;;;;;;;;693628;28;908;-58
2021/11/02 00:04:25;;;;;;;9.93;7.22;;;;;;;;;;693612;28;1033;-58
2021/11/02 00:04:45;;;;;;;10.50;7.22;;;;;;;;;;693696;28;956;-58
2021/11/02 00:05:05;;;;;;;8.90;7.37;;;;;;;;;;693653;28;1034;-57
2021/11/02 00:05:26;;;;;;;9.77;7.70;;;;;;;;;;693744;28;805;-58
2021/11/02 00:05:46;;;;;;;10.85;7.75;;;;;;;;;;692998;28;1656;-58
2021/11/02 00:06:07;;;;;;;9.73;7.53;;;;;;;;;;693531;28;977;-58
2021/11/02 00:06:30;;;;;;;9.50;7.45;;;;;;;;;;693447;28;848;-59
2021/11/02 00:06:53;;;;;;;9.85;7.80;;;;;;;;;;693379;28;911;-59
2021/11/02 00:07:13;;;;;;;9.60;7.68;;;;;;;;;;693525;28;970;-59
2021/11/02 00:07:33;;;;;;;9.87;7.63;;;;;;;;;;693513;28;1018;-58
2021/11/02 00:07:53;;;;;;;9.80;7.87;;;;;;;;;;693562;28;848;-58
2021/11/02 00:08:16;;;;;;;10.67;7.83;;;;;;;;;;693578;28;1694;-59
2021/11/02 00:08:39;;;;;;;9.65;7.63;;;;;;;;;;694040;28;1971;-59
2021/11/02 00:08:59;;;;;;;9.55;7.65;;;;;;;;;;693472;28;927;-59
2021/11/02 00:09:21;;;;;;;9.80;7.57;;;;;;;;;;693706;28;897;-59
2021/11/02 00:09:43;;;;;;;10.05;8.00;;;;;;;;;;693577;28;916;-59
2021/11/02 00:10:11;;;;;;;9.38;7.53;;;;;;;;;;693640;28;1433;-58
2021/11/02 00:10:34;;;;;;;9.30;7.40;;;;;;;;;;692327;28;1175;-59
2021/11/02 00:10:54;;;;;;;8.63;7.13;;;;;;;;;;693682;28;915;-59
2021/11/02 00:11:14;;;;;;;9.23;7.50;;;;;;;;;;693719;28;855;-59
2021/11/02 00:11:35;;;;;;;10.20;7.83;;;;;;;;;;693622;28;872;-59
2021/11/02 00:11:55;;;;;;;9.70;7.75;;;;;;;;;;693620;28;951;-59
2021/11/02 00:12:15;;;;;;;8.93;7.60;;;;;;;;;;693754;28;903;-59
2021/11/02 00:12:35;;;;;;;9.13;7.60;;;;;;;;;;693511;28;805;-59
2021/11/02 00:12:56;;;;;;;10.40;8.07;;;;;;;;;;693416;28;1044;-59
2021/11/02 00:13:17;;;;;;;10.13;8.07;;;;;;;;;;693789;28;765;-59
2021/11/02 00:13:41;;;;;;;9.00;8.10;;;;;;;;;;693614;28;965;-57
2021/11/02 00:14:07;;;;;;;9.80;7.88;;;;;;;;;;693611;28;904;-57
2021/11/02 00:14:29;;;;;;;9.65;7.90;;;;;;;;;;693593;28;915;-58
2021/11/02 00:14:51;;;;;;;9.60;7.82;;;;;;;;;;693626;28;930;-58
2021/11/02 00:15:12;;;;;;;10.50;8.10;;;;;;;;;;693732;28;931;-58
2021/11/02 00:15:33;;;;;;;10.10;8.35;;;;;;;;;;693626;28;1063;-58
2021/11/02 00:15:55;;;;;;;9.85;7.78;;;;;;;;;;693392;28;1680;-57
2021/11/02 00:16:17;;;;;;;9.80;7.93;;;;;;;;;;693223;28;1537;-59
2021/11/02 00:16:37;;;;;;;9.85;8.10;;;;;;;;;;693136;28;1684;-57
2021/11/02 00:17:54;;;;;;;9.82;7.78;;;;;;;;;;685214;28;902;-58
2021/11/02 00:18:14;;;;;;;10.52;8.18;;;;;;;;;;687458;28;838;-59
2021/11/02 00:18:36;;;;;;;10.40;8.13;;;;;;;;;;687841;28;850;-58
2021/11/02 00:19:04;;;;;;;10.80;8.13;;;;;;;;;;689733;28;955;-59
2021/11/02 00:19:28;;;;;;;9.75;8.10;;;;;;;;;;693581;28;1225;-58
2021/11/02 00:19:52;;;;;;;9.88;8.40;;;;;;;;;;693695;28;733;-58
2021/11/02 00:20:14;;;;;;;10.63;8.35;;;;;;;;;;693243;28;1562;-58
2021/11/02 00:20:34;;;;;;;9.63;8.18;;;;;;;;;;693378;28;789;-58
2021/11/02 00:21:03;;;;;;;9.48;8.25;;;;;;;;;;693479;28;855;-58
2021/11/02 00:21:24;;;;;;;10.40;8.18;;;;;;;;;;693594;28;892;-58
2021/11/02 00:21:46;;;;;;;9.17;8.10;;;;;;;;;;693832;28;778;-58
2021/11/02 00:22:15;;;;;;;10.15;8.13;;;;;;;;;;693890;28;997;-57
2021/11/02 00:22:36;;;;;;;9.80;8.00;;;;;;;;;;694220;28;919;-58
2021/11/02 00:22:58;;;;;;;9.27;7.88;;;;;;;;;;693908;28;898;-59
2021/11/02 00:23:18;;;;;;;10.15;8.18;;;;;;;;;;693928;28;852;-59
2021/11/02 00:23:39;;;;;;;9.63;8.00;;;;;;;;;;694105;28;994;-58
2021/11/02 00:25:15;;;;;;;10.35;8.52;;;;;;;;;;692196;28;1312;-57
2021/11/02 00:25:36;;;;;;;9.30;8.33;;;;;;;;;;693225;28;844;-58
2021/11/02 00:25:56;;;;;;;9.90;8.20;;;;;;;;;;693153;28;824;-58
2021/11/02 00:26:16;;;;;;;10.10;8.27;;;;;;;;;;693520;28;808;-58
2021/11/02 00:26:36;;;;;;;10.07;8.20;;;;;;;;;;693528;28;860;-58
2021/11/02 00:26:57;;;;;;;9.50;8.10;;;;;;;;;;693565;28;999;-57
2021/11/02 00:27:17;;;;;;;9.40;8.07;;;;;;;;;;693649;28;999;-58
2021/11/02 00:27:43;;;;;;;9.32;8.30;;;;;;;;;;693717;28;840;-58
2021/11/02 00:28:04;;;;;;;11.10;8.10;;;;;;;;;;693548;28;979;-58
2021/11/02 00:28:24;;;;;;;10.93;8.40;;;;;;;;;;693589;28;1977;-59
2021/11/02 00:28:44;;;;;;;9.77;8.33;;;;;;;;;;693472;28;1227;-57
2021/11/02 00:29:05;;;;;;;9.70;8.43;;;;;;;;;;693574;28;840;-58
2021/11/02 00:29:25;;;;;;;9.55;7.90;;;;;;;;;;693502;28;1353;-59
2021/11/02 00:29:45;;;;;;;9.53;7.83;;;;;;;;;;693676;28;846;-59
2021/11/02 00:30:08;;;;;;;8.83;7.93;;;;;;;;;;693703;28;822;-58
2021/11/02 00:30:28;;;;;;;9.38;7.93;;;;;;;;;;693547;28;910;-58
2021/11/02 00:30:48;;;;;;;9.53;8.20;;;;;;;;;;693392;28;828;-59
2021/11/02 00:31:08;;;;;;;9.63;8.03;;;;;;;;;;693622;28;1449;-58
2021/11/02 00:31:28;;;;;;;9.10;8.13;;;;;;;;;;690799;28;1250;-59
2021/11/02 00:31:49;;;;;;;9.50;8.40;;;;;;;;;;690889;28;773;-58
2021/11/02 00:32:12;;;;;;;9.40;8.20;;;;;;;;;;690855;28;1334;-58
2021/11/02 00:32:32;;;;;;;10.63;8.20;;;;;;;;;;690805;28;959;-58
2021/11/02 00:32:55;;;;;;;10.33;8.33;;;;;;;;;;690195;28;1111;-58
2021/11/02 00:33:15;;;;;;;10.80;8.80;;;;;;;;;;690963;28;919;-58
2021/11/02 00:33:35;;;;;;;10.30;8.50;;;;;;;;;;690780;28;961;-58
2021/11/02 00:33:55;;;;;;;10.33;8.27;;;;;;;;;;692799;28;1653;-58
2021/11/02 00:34:36;;;;;;;9.27;7.90;;;;;;;;;;693694;28;998;-58
2021/11/02 00:34:57;;;;;;;9.80;8.10;;;;;;;;;;692703;28;1645;-58
2021/11/02 00:35:19;;;;;;;9.48;8.13;;;;;;;;;;693723;28;860;-58
2021/11/02 00:35:39;;;;;;;10.93;8.30;;;;;;;;;;693503;28;911;-58
2021/11/02 00:35:59;;;;;;;10.63;8.80;;;;;;;;;;693368;28;1732;-58
2021/11/02 00:36:19;;;;;;;9.65;8.35;;;;;;;;;;693660;28;880;-58
2021/11/02 00:36:39;;;;;;;10.60;8.50;;;;;;;;;;693456;28;1162;-58
2021/11/02 00:37:00;;;;;;;9.37;8.33;;;;;;;;;;693521;28;904;-57
2021/11/02 00:37:20;;;;;;;9.87;8.40;;;;;;;;;;693698;28;828;-57
2021/11/02 00:37:40;;;;;;;10.20;8.70;;;;;;;;;;693529;28;869;-58
2021/11/02 00:38:01;;;;;;;9.70;8.70;;;;;;;;;;693668;28;824;-58
2021/11/02 00:38:21;;;;;;;10.30;8.60;;;;;;;;;;693553;28;893;-59
2021/11/02 00:38:41;;;;;;;10.30;8.80;;;;;;;;;;693581;28;844;-58
2021/11/02 00:39:02;;;;;;;10.43;8.77;;;;;;;;;;693488;28;1033;-58
2021/11/02 00:39:22;;;;;;;10.73;8.88;;;;;;;;;;693495;28;1377;-58
2021/11/02 00:39:43;;;;;;;9.63;8.63;;;;;;;;;;693616;28;896;-58
2021/11/02 00:40:06;;;;;;;9.65;8.38;;;;;;;;;;693058;28;1393;-59
2021/11/02 00:40:26;;;;;;;11.23;9.00;;;;;;;;;;693541;28;864;-58
2021/11/02 00:40:47;;;;;;;10.85;9.07;;;;;;;;;;693555;28;966;-58
2021/11/02 00:41:10;;;;;;;10.23;8.70;;;;;;;;;;693535;28;872;-59
2021/11/02 00:41:30;;;;;;;9.75;8.73;;;;;;;;;;693560;28;911;-58
2021/11/02 00:41:50;;;;;;;9.53;8.53;;;;;;;;;;693588;28;913;-58
2021/11/02 00:42:10;;;;;;;9.73;8.70;;;;;;;;;;693559;28;962;-59
2021/11/02 00:42:37;;;;;;;10.50;8.90;;;;;;;;;;693631;28;884;-59
2021/11/02 00:43:00;;;;;;;9.90;8.82;;;;;;;;;;693073;28;848;-59
2021/11/02 00:43:24;;;;;;;10.63;9.40;;;;;;;;;;693447;28;865;-58
2021/11/02 00:43:46;;;;;;;10.10;9.10;;;;;;;;;;693479;28;924;-58
2021/11/02 00:44:07;;;;;;;11.10;9.40;;;;;;;;;;693494;28;885;-58
2021/11/02 00:44:29;;;;;;;10.60;9.02;;;;;;;;;;693528;28;1368;-59
2021/11/02 00:44:56;;;;;;;11.15;8.73;;;;;;;;;;693081;28;1562;-58
2021/11/02 00:45:23;;;;;;;10.60;8.95;;;;;;;;;;693506;28;978;-59
2021/11/02 00:45:44;;;;;;;10.27;8.93;;;;;;;;;;693629;28;943;-58
2021/11/02 00:46:07;;;;;;;10.68;8.75;;;;;;;;;;693500;28;935;-58
2021/11/02 00:46:34;;;;;;;9.90;8.75;;;;;;;;;;693642;28;901;-57
2021/11/02 00:46:56;;;;;;;10.63;8.75;;;;;;;;;;693340;28;1407;-58
2021/11/02 00:47:22;;;;;;;10.63;9.07;;;;;;;;;;693215;28;1258;-58
2021/11/02 00:47:45;;;;;;;10.10;8.70;;;;;;;;;;693497;28;964;-58
2021/11/02 00:48:12;;;;;;;11.02;8.73;;;;;;;;;;693480;28;935;-58
2021/11/02 00:48:33;;;;;;;11.00;9.50;;;;;;;;;;693531;28;1934;-59
2021/11/02 00:48:53;;;;;;;10.30;8.95;;;;;;;;;;693477;28;904;-58
2021/11/02 00:49:21;;;;;;;10.93;8.87;;;;;;;;;;693465;28;899;-58
2021/11/02 00:49:41;;;;;;;10.23;9.00;;;;;;;;;;693644;28;916;-58
2021/11/02 00:50:17;;;;;;;10.20;9.10;;;;;;;;;;693461;28;957;-57
2021/11/02 00:50:38;;;;;;;10.43;9.25;;;;;;;;;;690648;28;1086;-58
2021/11/02 00:50:58;;;;;;;10.65;9.23;;;;;;;;;;691089;28;1353;-59
2021/11/02 00:51:18;;;;;;;10.13;9.10;;;;;;;;;;690836;28;998;-58
2021/11/02 00:51:38;;;;;;;9.83;8.83;;;;;;;;;;690811;28;844;-58
2021/11/02 00:51:58;;;;;;;10.43;8.90;;;;;;;;;;690779;28;1164;-57
2021/11/02 00:52:21;;;;;;;10.40;8.90;;;;;;;;;;690871;28;987;-59
2021/11/02 00:52:41;;;;;;;10.65;8.88;;;;;;;;;;690627;28;848;-58
2021/11/02 00:53:02;;;;;;;11.45;9.27;;;;;;;;;;690564;28;868;-58
2021/11/02 00:53:23;;;;;;;10.85;9.57;;;;;;;;;;690921;28;1051;-59
2021/11/02 00:53:46;;;;;;;10.93;9.47;;;;;;;;;;690963;28;1105;-58
2021/11/02 00:54:06;;;;;;;10.95;9.80;;;;;;;;;;690943;28;892;-58
2021/11/02 00:54:26;;;;;;;10.60;9.50;;;;;;;;;;691373;28;1562;-58
2021/11/02 00:54:46;;;;;;;11.70;9.90;;;;;;;;;;693204;28;883;-58
2021/11/02 00:55:07;;;;;;;11.37;9.70;;;;;;;;;;693574;28;830;-58
2021/11/02 00:55:27;;;;;;;11.73;9.70;;;;;;;;;;693636;28;1037;-57
2021/11/02 00:55:47;;;;;;;11.10;9.90;;;;;;;;;;693272;28;1621;-57
2021/11/02 00:56:07;;;;;;;11.37;9.53;;;;;;;;;;693515;28;1621;-57
2021/11/02 00:56:27;;;;;;;12.60;9.73;;;;;;;;;;693484;28;1684;-58
2021/11/02 00:56:48;;;;;;;10.87;9.53;;;;;;;;;;693329;28;1526;-58
2021/11/02 00:57:08;;;;;;;12.87;9.70;;;;;;;;;;693475;28;999;-58
2021/11/02 00:57:28;;;;;;;12.47;10.00;;;;;;;;;;693508;28;1193;-57
2021/11/02 00:57:49;;;;;;;10.70;9.40;;;;;;;;;;693415;28;932;-58
2021/11/02 00:58:09;;;;;;;10.70;9.60;;;;;;;;;;693667;28;899;-57
2021/11/02 00:58:29;;;;;;;10.60;9.40;;;;;;;;;;693557;28;974;-57
2021/11/02 00:58:49;;;;;;;10.17;9.13;;;;;;;;;;693449;28;1026;-58
2021/11/02 00:59:10;;;;;;;10.25;9.25;;;;;;;;;;693473;28;1186;-58
2021/11/02 00:59:30;;;;;;;11.50;9.93;;;;;;;;;;693563;28;1399;-58
2021/11/02 00:59:50;;;;;;;11.20;9.87;;;;;;;;;;693446;28;1021;-59
2021/11/02 01:00:11;;;;;;;11.20;10.02;;;;;;;;;;693585;28;931;-58
2021/11/02 01:00:33;;;;;;;11.90;9.82;;;;;;;;;;693450;28;901;-58
2021/11/02 01:00:53;;;;;;;11.20;9.68;;;;;;;;;;693553;28;931;-58
2021/11/02 01:01:13;;;;;;;12.63;10.00;;;;;;;;;;693490;28;962;-58
2021/11/02 01:01:34;;;;;;;11.73;9.63;;;;;;;;;;693623;28;914;-58
2021/11/02 01:01:55;;;;;;;10.90;9.50;;;;;;;;;;693441;28;1046;-58
2021/11/02 01:02:18;;;;;;;11.38;10.00;;;;;;;;;;693681;28;888;-58
2021/11/02 01:02:41;;;;;;;11.13;9.93;;;;;;;;;;693374;28;903;-58
2021/11/02 01:03:03;;;;;;;10.93;9.82;;;;;;;;;;693270;28;1148;-59
2021/11/02 01:03:23;;;;;;;11.75;10.18;;;;;;;;;;693687;28;904;-59
2021/11/02 01:03:47;;;;;;;12.27;10.07;;;;;;;;;;693494;28;845;-58
2021/11/02 01:04:09;;;;;;;11.60;9.82;;;;;;;;;;693208;28;1649;-59
2021/11/02 01:04:30;;;;;;;11.02;9.73;;;;;;;;;;693307;28;1542;-58
2021/11/02 01:04:50;;;;;;;10.70;9.60;;;;;;;;;;693514;28;982;-58
2021/11/02 01:05:15;;;;;;;10.87;9.23;;;;;;;;;;693612;28;842;-59
2021/11/02 01:05:35;;;;;;;10.95;9.65;;;;;;;;;;693469;28;891;-59
2021/11/02 01:05:56;;;;;;;11.43;10.23;;;;;;;;;;693326;28;1408;-58
2021/11/02 01:06:16;;;;;;;12.40;10.47;;;;;;;;;;693450;28;1554;-58
2021/11/02 01:06:37;;;;;;;11.65;10.45;;;;;;;;;;693490;28;831;-59
2021/11/02 01:06:57;;;;;;;11.77;10.32;;;;;;;;;;693566;28;885;-59
2021/11/02 01:07:20;;;;;;;11.60;10.33;;;;;;;;;;693497;28;1030;-57
2021/11/02 01:07:41;;;;;;;11.93;10.55;;;;;;;;;;693599;28;914;-58
2021/11/02 01:08:02;;;;;;;11.68;10.48;;;;;;;;;;693578;28;853;-59
2021/11/02 01:08:23;;;;;;;11.90;10.68;;;;;;;;;;693394;28;1968;-58
2021/11/02 01:08:43;;;;;;;11.65;10.35;;;;;;;;;;693281;28;1282;-59
2021/11/02 01:09:06;;;;;;;13.77;10.70;;;;;;;;;;693542;28;836;-58
2021/11/02 01:09:27;;;;;;;12.30;10.77;;;;;;;;;;693413;28;1244;-58
2021/11/02 01:09:47;;;;;;;12.27;11.00;;;;;;;;;;693573;28;1232;-58
2021/11/02 01:10:13;;;;;;;12.13;10.83;;;;;;;;;;693529;28;806;-58
2021/11/02 01:10:35;;;;;;;12.10;10.50;;;;;;;;;;693577;28;892;-58
2021/11/02 01:10:56;;;;;;;11.88;10.63;;;;;;;;;;693477;28;935;-59
2021/11/02 01:11:17;;;;;;;12.87;10.77;;;;;;;;;;693511;28;840;-58
2021/11/02 01:11:37;;;;;;;12.00;10.56;;;;;;;;;;693526;28;954;-58
2021/11/02 01:11:57;;;;;;;12.53;10.60;;;;;;;;;;693578;28;841;-58
2021/11/02 01:12:18;;;;;;;12.00;10.60;;;;;;;;;;693458;28;812;-58
2021/11/02 01:12:38;;;;;;;11.83;10.47;;;;;;;;;;693397;28;1342;-58
2021/11/02 01:12:58;;;;;;;12.05;10.63;;;;;;;;;;693068;28;967;-58
2021/11/02 01:13:18;;;;;;;12.57;10.47;;;;;;;;;;693500;28;982;-59
2021/11/02 01:13:39;;;;;;;12.07;10.50;;;;;;;;;;693639;28;985;-58
2021/11/02 01:13:59;;;;;;;12.27;10.98;;;;;;;;;;693524;28;846;-58
2021/11/02 01:14:19;;;;;;;12.77;11.47;;;;;;;;;;693463;28;1026;-58
2021/11/02 01:14:40;;;;;;;11.87;10.60;;;;;;;;;;693681;28;909;-58
2021/11/02 01:15:00;;;;;;;12.70;10.45;;;;;;;;;;693414;28;881;-58
2021/11/02 01:15:25;;;;;;;12.40;11.10;;;;;;;;;;693623;28;770;-58
2021/11/02 01:15:45;;;;;;;12.52;11.23;;;;;;;;;;690938;28;915;-58
2021/11/02 01:16:05;;;;;;;12.30;11.03;;;;;;;;;;690747;28;991;-58
2021/11/02 01:16:25;;;;;;;12.25;11.05;;;;;;;;;;690873;28;959;-59
2021/11/02 01:16:48;;;;;;;12.30;11.10;;;;;;;;;;692610;28;1551;-59
2021/11/02 01:17:09;;;;;;;12.48;11.10;;;;;;;;;;690752;28;1019;-59
2021/11/02 01:17:29;;;;;;;12.10;10.80;;;;;;;;;;690913;28;1009;-58
2021/11/02 01:17:49;;;;;;;12.27;11.00;;;;;;;;;;690831;28;853;-58
2021/11/02 01:18:09;;;;;;;12.10;10.80;;;;;;;;;;690877;28;844;-58
2021/11/02 01:18:30;;;;;;;12.30;11.00;;;;;;;;;;690777;28;1029;-59
2021/11/02 01:18:51;;;;;;;12.50;11.20;;;;;;;;;;690751;28;941;-58
2021/11/02 01:19:12;;;;;;;12.60;11.30;;;;;;;;;;690762;28;995;-58
2021/11/02 01:19:32;;;;;;;12.30;11.00;;;;;;;;;;690841;28;1428;-58
2021/11/02 01:19:52;;;;;;;12.47;11.17;;;;;;;;;;690830;28;908;-58
2021/11/02 01:20:14;;;;;;;13.00;11.23;;;;;;;;;;690884;28;864;-58
2021/11/02 01:20:34;;;;;;;12.63;10.93;;;;;;;;;;690846;28;967;-59
2021/11/02 01:20:54;;;;;;;12.10;10.77;;;;;;;;;;690772;28;817;-58
2021/11/02 01:21:14;;;;;;;12.18;10.93;;;;;;;;;;691078;28;1330;-58
2021/11/02 01:21:35;;;;;;;12.50;11.17;;;;;;;;;;690897;28;1011;-58
2021/11/02 01:21:55;;;;;;;13.87;11.13;;;;;;;;;;690844;28;809;-58
2021/11/02 01:22:15;;;;;;;13.40;11.17;;;;;;;;;;692130;28;1634;-58
2021/11/02 01:22:35;;;;;;;13.10;10.95;;;;;;;;;;693503;28;880;-58
2021/11/02 01:22:55;;;;;;;12.30;11.00;;;;;;;;;;693016;28;842;-58
2021/11/02 01:23:16;;;;;;;12.43;11.13;;;;;;;;;;693501;28;1042;-58
2021/11/02 01:23:36;;;;;;;13.70;11.43;;;;;;;;;;693216;28;1468;-58
2021/11/02 01:23:57;;;;;;;12.90;11.20;;;;;;;;;;693645;28;800;-60
2021/11/02 01:24:17;;;;;;;12.53;11.23;;;;;;;;;;693396;28;1546;-58
2021/11/02 01:24:38;;;;;;;12.95;11.50;;;;;;;;;;693501;28;911;-59
2021/11/02 01:25:00;;;;;;;13.20;11.52;;;;;;;;;;693486;28;903;-57
2021/11/02 01:25:21;;;;;;;12.74;11.48;;;;;;;;;;693531;28;1206;-58
2021/11/02 01:25:41;;;;;;;13.43;12.03;;;;;;;;;;693168;28;1609;-57
2021/11/02 01:26:01;;;;;;;13.43;12.03;;;;;;;;;;693488;28;1590;-57
2021/11/02 01:26:21;;;;;;;12.50;11.20;;;;;;;;;;693496;28;1605;-58
2021/11/02 01:26:41;;;;;;;12.88;11.43;;;;;;;;;;693488;28;924;-58
2021/11/02 01:27:02;;;;;;;13.53;11.73;;;;;;;;;;693184;28;1625;-57
2021/11/02 01:27:22;;;;;;;13.82;12.02;;;;;;;;;;693499;28;991;-58
2021/11/02 01:27:43;;;;;;;13.60;12.13;;;;;;;;;;693446;28;984;-58
2021/11/02 01:28:03;;;;;;;13.40;12.00;;;;;;;;;;693607;28;909;-57
2021/11/02 01:28:23;;;;;;;13.45;12.15;;;;;;;;;;693413;28;1879;-58
2021/11/02 01:28:46;;;;;;;13.70;12.23;;;;;;;;;;693576;28;848;-58
2021/11/02 01:29:06;;;;;;;15.38;12.18;;;;;;;;;;693434;28;975;-57
2021/11/02 01:29:27;;;;;;;14.80;11.90;;;;;;;;;;693372;28;1279;-57
2021/11/02 01:29:50;;;;;;;14.07;12.40;;;;;;;;;;693500;28;967;-58
2021/11/02 01:30:17;;;;;;;13.70;12.30;;;;;;;;;;693585;28;876;-57
2021/11/02 01:30:37;;;;;;;13.93;12.40;;;;;;;;;;693417;28;1102;-57
2021/11/02 01:30:58;;;;;;;13.73;12.30;;;;;;;;;;693479;28;920;-58
2021/11/02 01:31:18;;;;;;;13.32;11.93;;;;;;;;;;693412;28;934;-57
2021/11/02 01:31:39;;;;;;;13.50;11.85;;;;;;;;;;693530;28;907;-58
2021/11/02 01:31:59;;;;;;;13.33;11.87;;;;;;;;;;693564;28;801;-57
2021/11/02 01:32:19;;;;;;;13.97;12.30;;;;;;;;;;693522;28;952;-58
2021/11/02 01:32:40;;;;;;;14.27;12.70;;;;;;;;;;693316;28;850;-58
2021/11/02 01:33:01;;;;;;;13.50;12.10;;;;;;;;;;693279;28;1344;-57
2021/11/02 01:33:21;;;;;;;13.50;12.13;;;;;;;;;;693376;28;793;-58
2021/11/02 01:33:41;;;;;;;14.25;12.85;;;;;;;;;;693288;28;1629;-58
2021/11/02 01:34:02;;;;;;;14.30;12.80;;;;;;;;;;693487;28;975;-58
2021/11/02 01:34:22;;;;;;;14.18;12.68;;;;;;;;;;693479;28;931;-58
2021/11/02 01:34:42;;;;;;;13.80;12.40;;;;;;;;;;693564;28;789;-57
2021/11/02 01:35:03;;;;;;;13.90;12.50;;;;;;;;;;693352;28;975;-58
2021/11/02 01:35:23;;;;;;;15.32;13.05;;;;;;;;;;693445;28;1003;-57
2021/11/02 01:35:43;;;;;;;15.37;13.43;;;;;;;;;;693190;28;1598;-58
2021/11/02 01:36:13;;;;;;;14.90;13.30;;;;;;;;;;693249;28;1554;-58
2021/11/02 01:36:33;;;;;;;14.80;13.40;;;;;;;;;;693544;28;846;-60
2021/11/02 01:36:54;;;;;;;14.30;13.00;;;;;;;;;;693416;28;1631;-57
2021/11/02 01:37:15;;;;;;;14.38;12.88;;;;;;;;;;691183;28;1301;-59
2021/11/02 01:37:41;;;;;;;14.40;12.90;;;;;;;;;;691475;28;822;-58
2021/11/02 01:38:04;;;;;;;15.10;13.10;;;;;;;;;;691679;28;1350;-59
2021/11/02 01:38:24;;;;;;;14.63;13.10;;;;;;;;;;691460;28;880;-58
2021/11/02 01:38:53;;;;;;;14.87;13.33;;;;;;;;;;691373;28;838;-58
2021/11/02 01:39:13;;;;;;;15.50;13.07;;;;;;;;;;691226;28;1288;-58
2021/11/02 01:39:34;;;;;;;14.53;13.07;;;;;;;;;;691271;28;892;-59
2021/11/02 01:39:54;;;;;;;15.07;13.50;;;;;;;;;;691274;28;1019;-57
2021/11/02 01:40:17;;;;;;;15.23;13.48;;;;;;;;;;691428;28;875;-57
2021/11/02 01:40:37;;;;;;;15.10;13.57;;;;;;;;;;691469;28;896;-58
2021/11/02 01:40:58;;;;;;;14.87;13.37;;;;;;;;;;691133;28;863;-58
2021/11/02 01:41:22;;;;;;;15.05;13.48;;;;;;;;;;691349;28;868;-59
2021/11/02 01:41:42;;;;;;;15.45;13.85;;;;;;;;;;691538;28;868;-58
2021/11/02 01:42:02;;;;;;;15.13;13.53;;;;;;;;;;691781;28;1082;-58
2021/11/02 01:42:25;;;;;;;14.82;13.32;;;;;;;;;;692133;28;941;-58
2021/11/02 01:42:47;;;;;;;15.43;13.85;;;;;;;;;;694040;28;1450;-57
2021/11/02 01:43:07;;;;;;;15.52;13.88;;;;;;;;;;694504;28;917;-58
2021/11/02 01:43:27;;;;;;;15.60;13.73;;;;;;;;;;694763;28;991;-58
2021/11/02 01:43:47;;;;;;;15.40;13.80;;;;;;;;;;694465;28;1049;-58
2021/11/02 01:44:08;;;;;;;15.30;13.77;;;;;;;;;;694766;28;920;-58
2021/11/02 01:44:29;;;;;;;14.97;13.47;;;;;;;;;;694647;28;890;-58
2021/11/02 01:44:49;;;;;;;15.77;14.13;;;;;;;;;;694559;28;1110;-58
2021/11/02 01:45:11;;;;;;;16.00;14.40;;;;;;;;;;694610;28;789;-57
2021/11/02 01:45:31;;;;;;;15.93;14.23;;;;;;;;;;694847;28;835;-58
2021/11/02 01:45:51;;;;;;;15.90;14.30;;;;;;;;;;694424;28;900;-57
2021/11/02 01:46:23;;;;;;;16.10;14.40;;;;;;;;;;694880;28;829;-58
2021/11/02 01:46:44;;;;;;;15.60;14.00;;;;;;;;;;693758;28;1554;-57
2021/11/02 01:47:05;;;;;;;16.00;14.30;;;;;;;;;;694155;28;1352;-59
2021/11/02 01:47:25;;;;;;;17.02;14.82;;;;;;;;;;694069;28;859;-59
2021/11/02 01:47:47;;;;;;;17.00;15.13;;;;;;;;;;693947;28;978;-58
2021/11/02 01:48:07;;;;;;;16.25;14.65;;;;;;;;;;693972;28;1038;-58
2021/11/02 01:48:27;;;;;;;16.17;14.47;;;;;;;;;;693674;28;1914;-58
2021/11/02 01:48:49;;;;;;;15.63;14.00;;;;;;;;;;694112;28;829;-57
2021/11/02 01:49:10;;;;;;;15.38;13.77;;;;;;;;;;693871;28;1389;-58
2021/11/02 01:49:30;;;;;;;16.00;14.30;;;;;;;;;;694045;28;1196;-58
2021/11/02 01:49:50;;;;;;;15.90;14.00;;;;;;;;;;693958;28;818;-57
2021/11/02 01:50:11;;;;;;;15.77;14.18;;;;;;;;;;694156;28;837;-58
2021/11/02 01:50:32;;;;;;;15.70;14.05;;;;;;;;;;694030;28;822;-57
2021/11/02 01:50:52;;;;;;;16.93;14.50;;;;;;;;;;694034;28;991;-58
2021/11/02 01:51:12;;;;;;;16.23;14.40;;;;;;;;;;693370;28;1374;-58
2021/11/02 01:51:33;;;;;;;15.80;14.17;;;;;;;;;;694078;28;787;-58
2021/11/02 01:51:53;;;;;;;16.17;14.45;;;;;;;;;;694029;28;902;-59
2021/11/02 01:52:13;;;;;;;16.23;14.03;;;;;;;;;;694722;28;1304;-60
2021/11/02 01:52:34;;;;;;;16.13;14.20;;;;;;;;;;694690;28;1543;-58
2021/11/02 01:52:54;;;;;;;15.70;14.00;;;;;;;;;;694312;28;1561;-58
2021/11/02 01:53:15;;;;;;;15.87;14.23;;;;;;;;;;694919;28;884;-59
2021/11/02 01:53:35;;;;;;;16.40;14.70;;;;;;;;;;694833;28;871;-58
2021/11/02 01:53:56;;;;;;;16.45;14.75;;;;;;;;;;694898;28;1309;-58
2021/11/02 01:54:18;;;;;;;16.65;14.90;;;;;;;;;;694927;28;1054;-58
2021/11/02 01:54:41;;;;;;;16.92;15.13;;;;;;;;;;694960;28;863;-59
2021/11/02 01:55:02;;;;;;;16.13;14.43;;;;;;;;;;695016;28;883;-57
2021/11/02 01:55:22;;;;;;;15.98;14.27;;;;;;;;;;694649;28;980;-58
2021/11/02 01:55:43;;;;;;;15.65;14.02;;;;;;;;;;695212;28;1140;-58
2021/11/02 01:56:03;;;;;;;16.37;14.67;;;;;;;;;;694896;28;805;-58
2021/11/02 01:56:23;;;;;;;16.42;14.73;;;;;;;;;;694857;28;765;-57
2021/11/02 01:56:48;;;;;;;16.23;14.53;;;;;;;;;;694749;28;1652;-58
2021/11/02 01:57:08;;;;;;;15.82;14.13;;;;;;;;;;695101;28;885;-57
2021/11/02 01:57:28;;;;;;;16.57;14.43;;;;;;;;;;694671;28;1242;-59
2021/11/02 01:57:52;;;;;;;16.60;14.80;;;;;;;;;;694723;28;852;-58
2021/11/02 01:58:13;;;;;;;16.48;14.70;;;;;;;;;;694190;28;899;-64
2021/11/02 01:58:34;;;;;;;16.38;14.68;;;;;;;;;;694053;28;918;-58
2021/11/02 01:58:54;;;;;;;15.87;14.03;;;;;;;;;;694065;28;790;-58
2021/11/02 01:59:26;;;;;;;16.70;14.50;;;;;;;;;;693936;28;1296;-59
2021/11/02 01:59:46;;;;;;;16.17;14.38;;;;;;;;;;693985;28;977;-58
2021/11/02 02:00:10;;;;;;;17.33;14.90;;;;;;;;;;693997;28;789;-58
2021/11/02 02:00:30;;;;;;;15.88;14.25;;;;;;;;;;693961;28;956;-57
2021/11/02 02:00:56;;;;;;;15.90;14.20;;;;;;;;;;694027;28;1417;-58
2021/11/02 02:01:29;;;;;;;16.05;14.35;;;;;;;;;;694097;28;889;-58
2021/11/02 02:01:56;;;;;;;16.00;14.30;;;;;;;;;;693994;28;969;-58
2021/11/02 02:02:28;;;;;;;17.23;14.50;;;;;;;;;;694046;28;996;-57
2021/11/02 02:03:07;;;;;;;15.95;14.32;;;;;;;;;;693163;28;1601;-58
2021/11/02 02:03:36;;;;;;;15.68;14.05;;;;;;;;;;693988;28;887;-58
2021/11/02 02:04:06;;;;;;;16.00;14.38;;;;;;;;;;693962;28;1079;-58
2021/11/02 02:04:35;;;;;;;15.68;14.00;;;;;;;;;;693983;28;1058;-58
2021/11/02 02:04:55;;;;;;;16.73;14.68;;;;;;;;;;693943;28;1156;-58
2021/11/02 02:05:25;;;;;;;16.43;14.40;;;;;;;;;;693864;28;1178;-58
2021/11/02 02:05:54;;;;;;;15.75;14.15;;;;;;;;;;694049;28;851;-58
2021/11/02 02:06:23;;;;;;;16.20;14.55;;;;;;;;;;692642;28;1567;-58
2021/11/02 02:06:53;;;;;;;17.13;14.55;;;;;;;;;;693875;28;901;-58
2021/11/02 02:07:33;;;;;;;15.68;13.93;;;;;;;;;;694048;28;967;-58
2021/11/02 02:08:12;;;;;;;16.60;13.85;;;;;;;;;;693918;28;891;-57
2021/11/02 02:08:40;;;;;;;15.43;13.73;;;;;;;;;;693932;28;1969;-59
2021/11/02 02:09:04;;;;;;;15.05;13.55;;;;;;;;;;693871;28;1200;-58
2021/11/02 02:09:45;;;;;;;15.45;13.85;;;;;;;;;;693903;28;1395;-59
2021/11/02 02:10:05;;;;;;;15.68;14.00;;;;;;;;;;691303;28;1219;-59
2021/11/02 02:10:28;;;;;;;15.67;14.03;;;;;;;;;;691343;28;990;-59
2021/11/02 02:11:01;;;;;;;15.93;14.23;;;;;;;;;;691140;28;1027;-59
2021/11/02 02:11:31;;;;;;;15.23;13.40;;;;;;;;;;691177;28;883;-59
2021/11/02 02:11:55;;;;;;;15.38;13.73;;;;;;;;;;691126;28;1631;-58
2021/11/02 02:12:19;;;;;;;15.70;13.88;;;;;;;;;;691304;28;877;-59
2021/11/02 02:13:10;;;;;;;15.55;13.85;;;;;;;;;;690673;28;1451;-59
2021/11/02 02:13:38;;;;;;;15.90;13.98;;;;;;;;;;685251;28;1137;-58
2021/11/02 02:13:58;;;;;;;16.38;14.38;;;;;;;;;;685402;28;1313;-58
2021/11/02 02:14:40;;;;;;;15.70;14.00;;;;;;;;;;686141;28;1655;-57
2021/11/02 02:15:18;;;;;;;16.33;13.65;;;;;;;;;;690846;28;1139;-58
2021/11/02 02:15:42;;;;;;;16.27;14.50;;;;;;;;;;693931;28;939;-58
2021/11/02 02:16:10;;;;;;;15.63;14.02;;;;;;;;;;693951;28;893;-58
2021/11/02 02:16:33;;;;;;;15.40;13.80;;;;;;;;;;693545;28;1550;-58
2021/11/02 02:16:55;;;;;;;17.00;14.32;;;;;;;;;;693993;28;1046;-58
2021/11/02 02:17:17;;;;;;;16.77;14.93;;;;;;;;;;693906;28;873;-58
2021/11/02 02:17:57;;;;;;;16.35;14.57;;;;;;;;;;693938;28;852;-58